Time;durP1;ratioP1;P1;durP2;ratioP2;P2;SDS_P1;SDS_P2;PMS_P1;PMS_P2;Temp;Humidity;BMP_temperature;BMP_pressure;BME280_temperature;BME280_humidity;BME280_pressure;Samples;Min_cycle;Max_cycle;Signal;HPM_P1;HPM_P2
2023/06/18 00:00:39;;;;;;;8.27;6.90;;;19.10;69.20;;;;;;4972170;28;89947;-83
2023/06/18 00:03:05;;;;;;;13.25;7.93;;;19.10;69.20;;;;;;4971372;28;88854;-83
2023/06/18 00:05:31;;;;;;;11.02;7.78;;;19.10;70.30;;;;;;4973832;28;87107;-84
2023/06/18 00:07:57;;;;;;;9.68;7.10;;;19.00;69.80;;;;;;4974032;28;86214;-84
2023/06/18 00:10:22;;;;;;;10.45;7.75;;;19.00;69.60;;;;;;4972724;28;89597;-83
2023/06/18 00:12:48;;;;;;;9.98;7.47;;;19.00;69.60;;;;;;4971313;28;88560;-84
2023/06/18 00:15:14;;;;;;;8.57;6.88;;;19.00;69.40;;;;;;4972604;28;86400;-83
2023/06/18 00:17:39;;;;;;;10.38;7.68;;;18.90;69.50;;;;;;4974081;28;86238;-83
2023/06/18 00:20:05;;;;;;;11.77;8.00;;;18.90;69.30;;;;;;4964812;28;89632;-84
2023/06/18 00:22:31;;;;;;;9.05;7.93;;;18.80;70.20;;;;;;4939228;28;90812;-84
2023/06/18 00:24:57;;;;;;;11.23;7.70;;;18.80;70.90;;;;;;4971888;28;87232;-82
2023/06/18 00:27:22;;;;;;;13.27;7.28;;;18.70;70.40;;;;;;4971511;28;86964;-84
2023/06/18 00:29:48;;;;;;;9.63;7.40;;;18.70;70.70;;;;;;4972297;28;90074;-84
2023/06/18 00:32:14;;;;;;;14.63;7.63;;;18.60;70.60;;;;;;4973150;28;89612;-84
2023/06/18 00:34:41;;;;;;;9.55;7.60;;;18.60;71.00;;;;;;4971267;28;86370;-84
2023/06/18 00:37:09;;;;;;;7.35;6.50;;;18.50;71.40;;;;;;4972137;28;86340;-84
2023/06/18 00:39:36;;;;;;;16.00;8.77;;;18.50;71.40;;;;;;4929580;28;89619;-82
2023/06/18 00:42:02;;;;;;;11.80;8.68;;;18.40;72.30;;;;;;4972012;28;88884;-84
2023/06/18 00:44:28;;;;;;;10.07;7.28;;;18.40;72.90;;;;;;4956897;28;86695;-84
2023/06/18 00:46:56;;;;;;;8.23;7.25;;;18.30;72.40;;;;;;4939780;28;86172;-83
2023/06/18 00:49:22;;;;;;;10.35;7.90;;;18.30;72.70;;;;;;4971305;28;90480;-84
2023/06/18 00:51:48;;;;;;;12.00;8.90;;;18.20;72.80;;;;;;4971293;28;89663;-84
2023/06/18 00:54:15;;;;;;;12.70;8.15;;;18.10;74.00;;;;;;4938831;28;86562;-82
2023/06/18 00:56:50;;;;;;;12.05;8.77;;;18.10;74.10;;;;;;4972999;28;86006;-83
2023/06/18 00:59:22;;;;;;;11.90;8.65;;;18.00;75.40;;;;;;4910593;28;93546;-84
2023/06/18 01:01:55;;;;;;;10.75;7.80;;;17.90;75.10;;;;;;4919766;28;88542;-85
2023/06/18 01:04:23;;;;;;;;;;;17.80;75.00;;;;;;4920373;28;86377;-82
2023/06/18 01:06:57;;;;;;;14.13;9.05;;;17.80;75.10;;;;;;4954232;28;86253;-83
2023/06/18 01:09:24;;;;;;;10.48;8.25;;;17.80;75.00;;;;;;4920985;28;86484;-84
2023/06/18 01:11:51;;;;;;;9.05;7.78;;;17.70;74.60;;;;;;4935543;28;88549;-81
2023/06/18 01:14:31;;;;;;;10.38;8.52;;;17.70;75.30;;;;;;4920569;28;86469;-86
2023/06/18 01:16:58;;;;;;;12.63;8.93;;;17.70;75.60;;;;;;4919480;28;86372;-85
2023/06/18 01:19:55;;;;;;;9.75;8.13;;;17.60;75.90;;;;;;4918300;28;90048;-85
2023/06/18 01:22:40;;;;;;;11.02;8.57;;;17.50;76.10;;;;;;4918143;28;88573;-84
2023/06/18 01:25:07;;;;;;;12.30;8.40;;;17.50;76.20;;;;;;4919107;28;86254;-84
2023/06/18 01:27:41;;;;;;;11.52;8.30;;;17.40;75.90;;;;;;4919972;28;85899;-85
2023/06/18 01:30:11;;;;;;;17.60;9.00;;;17.40;76.80;;;;;;4952240;28;90259;-84
2023/06/18 01:32:38;;;;;;;12.07;9.07;;;17.30;76.70;;;;;;4936781;28;90073;-84
2023/06/18 01:35:05;;;;;;;16.05;8.27;;;17.30;77.20;;;;;;4935495;28;86220;-85
2023/06/18 01:38:00;;;;;;;13.32;7.88;;;17.20;76.40;;;;;;4919532;28;86504;-85
2023/06/18 01:40:34;;;;;;;12.27;8.55;;;17.20;76.30;;;;;;4913078;28;89332;-83
2023/06/18 01:43:03;;;;;;;10.77;8.57;;;17.20;76.10;;;;;;4918825;28;88717;-85
2023/06/18 01:45:49;;;;;;;12.73;8.90;;;17.20;77.40;;;;;;4919605;28;87327;-82
2023/06/18 01:48:20;;;;;;;14.25;9.77;;;17.10;77.90;;;;;;4910215;28;86816;-84
2023/06/18 01:50:48;;;;;;;12.18;8.52;;;17.10;78.30;;;;;;4950738;28;89934;-85
2023/06/18 01:53:16;;;;;;;13.18;8.07;;;17.00;77.50;;;;;;4919966;28;89910;-85
2023/06/18 01:55:44;;;;;;;10.07;8.10;;;17.00;77.50;;;;;;4935040;28;86433;-85
2023/06/18 01:58:13;;;;;;;9.88;7.72;;;17.00;77.50;;;;;;4910507;28;86376;-85
2023/06/18 02:00:40;;;;;;;13.65;9.27;;;16.90;77.70;;;;;;4919170;28;89016;-83
2023/06/18 02:03:05;;;;;;;12.45;8.60;;;16.90;78.20;;;;;;4919091;28;90107;-83
2023/06/18 02:05:31;;;;;;;16.90;9.02;;;16.80;79.10;;;;;;4919655;28;86067;-85
2023/06/18 02:07:56;;;;;;;11.13;7.85;;;16.80;78.90;;;;;;4918839;28;86511;-83
2023/06/18 02:10:22;;;;;;;10.85;8.00;;;16.80;77.90;;;;;;4918209;28;90161;-85
2023/06/18 02:12:48;;;;;;;11.88;8.32;;;16.70;78.10;;;;;;4918661;28;88272;-85
2023/06/18 02:15:14;;;;;;;13.40;9.18;;;16.70;78.20;;;;;;4918570;28;86751;-84
2023/06/18 02:17:40;;;;;;;13.90;9.13;;;16.60;78.40;;;;;;4919599;28;86864;-85
2023/06/18 02:20:08;;;;;;;11.23;8.07;;;16.60;78.70;;;;;;4918071;28;88185;-83
2023/06/18 02:22:34;;;;;;;11.75;8.43;;;16.60;78.80;;;;;;4919872;28;87427;-83
2023/06/18 02:25:01;;;;;;;15.95;8.45;;;16.50;78.40;;;;;;4920243;28;86882;-84
2023/06/18 02:27:27;;;;;;;12.23;8.02;;;16.50;78.90;;;;;;4919734;28;86601;-84
2023/06/18 02:29:52;;;;;;;14.05;9.98;;;16.50;79.80;;;;;;4918289;28;89382;-86
2023/06/18 02:32:18;;;;;;;12.82;8.55;;;16.40;80.60;;;;;;4918541;28;89852;-86
2023/06/18 02:34:44;;;;;;;11.07;9.15;;;16.40;80.10;;;;;;4918920;28;86725;-84
2023/06/18 02:37:09;;;;;;;15.35;8.60;;;16.40;80.80;;;;;;4918723;28;86375;-84
2023/06/18 02:39:35;;;;;;;10.55;8.48;;;16.30;80.70;;;;;;4918346;28;90156;-84
2023/06/18 02:42:01;;;;;;;11.65;9.45;;;16.30;80.90;;;;;;4918106;28;89840;-86
2023/06/18 02:44:28;;;;;;;11.48;8.23;;;16.20;81.00;;;;;;4919135;28;86647;-85
2023/06/18 02:46:55;;;;;;;12.90;9.15;;;16.20;80.60;;;;;;4917621;28;86234;-86
2023/06/18 02:49:20;;;;;;;11.60;9.15;;;16.20;80.70;;;;;;4918059;28;89748;-86
2023/06/18 02:51:46;;;;;;;11.93;9.80;;;16.20;81.10;;;;;;4917841;28;88494;-85
2023/06/18 02:54:12;;;;;;;12.20;9.02;;;16.20;81.10;;;;;;4918485;28;85996;-85
2023/06/18 02:56:38;;;;;;;13.57;9.38;;;16.10;81.10;;;;;;4918470;28;86383;-85
2023/06/18 02:59:04;;;;;;;14.23;8.68;;;16.10;81.20;;;;;;4918380;28;89279;-82
2023/06/18 03:01:31;;;;;;;12.65;8.77;;;16.00;80.90;;;;;;4918056;28;89941;-86
2023/06/18 03:03:57;;;;;;;15.10;9.63;;;16.00;80.70;;;;;;4917687;28;86459;-85
2023/06/18 03:06:23;;;;;;;13.38;9.45;;;16.00;80.80;;;;;;4917441;28;86799;-83
2023/06/18 03:08:49;;;;;;;15.18;10.35;;;16.00;81.40;;;;;;4915953;28;89409;-85
2023/06/18 03:11:15;;;;;;;15.85;10.40;;;16.00;82.20;;;;;;4913539;28;88489;-84
2023/06/18 03:13:41;;;;;;;12.07;9.60;;;15.90;82.10;;;;;;4913595;28;87450;-83
2023/06/18 03:16:06;;;;;;;15.23;9.18;;;15.90;82.20;;;;;;4915414;28;86507;-85
2023/06/18 03:18:33;;;;;;;13.98;8.98;;;15.90;82.20;;;;;;4915481;28;90667;-82
2023/06/18 03:20:58;;;;;;;15.35;9.68;;;15.90;82.40;;;;;;4915150;28;89532;-86
2023/06/18 03:23:24;;;;;;;14.05;9.10;;;15.90;82.60;;;;;;4918254;28;86576;-85
2023/06/18 03:25:50;;;;;;;14.70;10.32;;;15.90;82.30;;;;;;4917414;28;86924;-85
2023/06/18 03:28:16;;;;;;;13.80;9.73;;;15.90;82.30;;;;;;4916490;28;88829;-85
2023/06/18 03:30:42;;;;;;;15.57;10.07;;;15.90;82.80;;;;;;4917269;28;89570;-82
2023/06/18 03:33:08;;;;;;;14.15;10.10;;;15.90;82.90;;;;;;4919315;28;86455;-86
2023/06/18 03:35:36;;;;;;;13.43;9.30;;;15.80;83.60;;;;;;4920949;28;87296;-83
2023/06/18 03:38:02;;;;;;;14.13;9.98;;;15.80;83.00;;;;;;4920393;28;89068;-85
2023/06/18 03:40:28;;;;;;;13.18;10.82;;;15.80;83.20;;;;;;4920442;28;89773;-84
2023/06/18 03:42:54;;;;;;;16.88;10.13;;;15.70;84.20;;;;;;4920305;28;86981;-86
2023/06/18 03:45:20;;;;;;;12.48;9.85;;;15.70;83.90;;;;;;4920650;28;86131;-85
2023/06/18 03:47:46;;;;;;;16.52;9.48;;;15.70;83.30;;;;;;4920355;28;89713;-84
2023/06/18 03:50:13;;;;;;;16.10;9.82;;;15.70;83.40;;;;;;4921268;28;88574;-82
2023/06/18 03:52:38;;;;;;;16.08;9.70;;;15.70;83.40;;;;;;4921423;28;85883;-85
2023/06/18 03:55:04;;;;;;;12.82;9.75;;;15.70;83.40;;;;;;4921007;28;86681;-85
2023/06/18 03:57:30;;;;;;;9.90;8.55;;;15.80;83.20;;;;;;4920882;28;90397;-83
2023/06/18 03:59:56;;;;;;;11.00;9.27;;;15.80;83.10;;;;;;4920919;28;89098;-86
2023/06/18 04:02:21;;;;;;;14.43;9.95;;;15.80;83.30;;;;;;4921793;28;86240;-82
2023/06/18 04:04:47;;;;;;;16.00;9.38;;;15.80;83.20;;;;;;4920736;28;86078;-84
2023/06/18 04:07:13;;;;;;;11.88;10.05;;;15.90;82.90;;;;;;4921111;28;89980;-85
2023/06/18 04:09:39;;;;;;;15.00;10.15;;;15.90;82.70;;;;;;4919510;28;88783;-85
2023/06/18 04:12:06;;;;;;;14.32;9.77;;;15.90;83.30;;;;;;4919343;28;86622;-85
2023/06/18 04:14:34;;;;;;;12.70;9.32;;;15.90;84.20;;;;;;4921241;28;86722;-85
2023/06/18 04:17:00;;;;;;;13.75;9.40;;;15.90;83.80;;;;;;4920128;28;89058;-81
2023/06/18 04:19:26;;;;;;;14.65;9.27;;;15.90;84.50;;;;;;4920562;28;88617;-86
2023/06/18 04:21:52;;;;;;;15.68;9.93;;;15.90;84.50;;;;;;4920100;28;86384;-85
2023/06/18 04:24:17;;;;;;;16.23;10.23;;;15.90;84.60;;;;;;4920219;28;92686;-86
2023/06/18 04:26:43;;;;;;;14.73;9.90;;;15.90;85.10;;;;;;4935814;28;90428;-84
2023/06/18 04:29:09;;;;;;;16.60;10.45;;;15.90;84.60;;;;;;4973289;28;89509;-83
2023/06/18 04:31:35;;;;;;;15.00;9.52;;;15.90;84.90;;;;;;4938733;28;86884;-86
2023/06/18 04:34:01;;;;;;;12.18;9.57;;;15.90;85.40;;;;;;4940546;28;86291;-85
2023/06/18 04:36:26;;;;;;;13.45;9.88;;;16.00;85.40;;;;;;4968406;28;89181;-81
2023/06/18 04:38:52;;;;;;;18.33;10.57;;;16.00;86.30;;;;;;4928078;28;88851;-84
2023/06/18 04:41:18;;;;;;;13.43;10.52;;;16.10;85.90;;;;;;4938825;28;87215;-84
2023/06/18 04:43:44;;;;;;;20.75;10.60;;;16.10;86.40;;;;;;4936972;28;86047;-86
2023/06/18 04:46:10;;;;;;;15.82;9.98;;;16.20;86.60;;;;;;4938115;28;89861;-85
2023/06/18 04:48:35;;;;;;;17.23;10.27;;;16.20;86.00;;;;;;4969533;28;89177;-84
2023/06/18 04:51:01;;;;;;;17.20;9.30;;;16.30;84.70;;;;;;4938136;28;87054;-86
2023/06/18 04:53:29;;;;;;;14.00;8.68;;;16.40;85.60;;;;;;4972639;28;86128;-84
2023/06/18 04:55:54;;;;;;;16.63;9.05;;;16.50;85.50;;;;;;4939771;28;87787;-84
2023/06/18 04:58:20;;;;;;;17.45;8.93;;;16.70;84.90;;;;;;4971226;28;88863;-84
2023/06/18 05:00:46;;;;;;;24.48;8.57;;;16.80;85.50;;;;;;4939029;28;86417;-84
2023/06/18 05:03:12;;;;;;;20.42;9.18;;;17.00;85.90;;;;;;4934772;28;86647;-84
2023/06/18 05:05:38;;;;;;;15.30;9.75;;;17.10;85.50;;;;;;4920078;28;90189;-83
2023/06/18 05:08:04;;;;;;;14.43;9.10;;;17.20;85.80;;;;;;4919086;28;89600;-83
2023/06/18 05:10:30;;;;;;;18.50;9.05;;;17.30;85.10;;;;;;4934224;28;86305;-84
2023/06/18 05:12:55;;;;;;;13.30;9.77;;;17.40;84.10;;;;;;4939652;28;86536;-88
2023/06/18 05:15:21;;;;;;;17.98;10.70;;;17.50;84.20;;;;;;4972273;28;90197;-92
2023/06/18 05:17:47;;;;;;;14.45;8.23;;;17.70;84.40;;;;;;4938829;28;89986;-83
2023/06/18 05:20:12;;;;;;;15.60;9.68;;;17.80;84.00;;;;;;4971731;28;86280;-90
2023/06/18 05:22:39;;;;;;;13.63;8.13;;;17.90;82.90;;;;;;4972251;28;86097;-89
2023/06/18 05:25:06;;;;;;;12.85;8.98;;;18.00;81.50;;;;;;4971291;28;89332;-88
2023/06/18 05:27:31;;;;;;;13.73;8.18;;;18.10;80.40;;;;;;4972454;28;89925;-89
2023/06/18 05:29:59;;;;;;;19.58;8.52;;;18.20;79.20;;;;;;4932587;28;86152;-89
2023/06/18 05:32:24;;;;;;;19.23;6.97;;;18.30;75.90;;;;;;4973135;28;86762;-89
2023/06/18 05:34:50;;;;;;;17.60;6.43;;;18.40;70.30;;;;;;4940094;28;89828;-91
2023/06/18 05:37:16;;;;;;;14.88;5.72;;;18.50;68.60;;;;;;4972760;28;88794;-90
2023/06/18 05:39:42;;;;;;;7.47;5.20;;;18.60;65.10;;;;;;4955942;28;86310;-90
2023/06/18 05:42:08;;;;;;;8.07;5.93;;;18.70;61.10;;;;;;4972405;28;85970;-89
2023/06/18 05:44:33;;;;;;;9.63;6.00;;;18.80;63.00;;;;;;4973529;28;89324;-90
2023/06/18 05:46:59;;;;;;;6.90;5.35;;;18.90;63.00;;;;;;4972401;28;89659;-89
2023/06/18 05:49:26;;;;;;;9.00;5.10;;;19.00;64.80;;;;;;4972544;28;86639;-91
2023/06/18 05:51:52;;;;;;;9.98;4.75;;;19.10;63.50;;;;;;4930560;28;85913;-89
2023/06/18 05:54:18;;;;;;;9.52;5.18;;;19.20;63.40;;;;;;4964454;28;89060;-88
2023/06/18 05:56:44;;;;;;;7.50;5.43;;;19.30;62.50;;;;;;4973224;28;88798;-90
2023/06/18 05:59:10;;;;;;;12.20;5.68;;;19.50;62.80;;;;;;4973047;28;86535;-90
2023/06/18 06:01:36;;;;;;;9.27;4.93;;;19.60;64.20;;;;;;4972281;28;86170;-88
2023/06/18 06:04:03;;;;;;;8.43;5.43;;;19.70;65.20;;;;;;4955924;28;89952;-88
2023/06/18 06:06:29;;;;;;;9.93;5.03;;;19.80;66.00;;;;;;4973388;28;88805;-91
2023/06/18 06:08:55;;;;;;;6.53;4.90;;;20.00;65.40;;;;;;4971901;28;87651;-91
2023/06/18 06:11:21;;;;;;;6.53;5.00;;;20.10;64.90;;;;;;4940056;28;86421;-90
2023/06/18 06:13:46;;;;;;;8.45;4.97;;;20.20;65.60;;;;;;4938285;28;89216;-89
2023/06/18 06:16:12;;;;;;;8.18;4.93;;;20.40;61.70;;;;;;4971488;28;87270;-88
2023/06/18 06:18:38;;;;;;;10.23;4.93;;;20.50;60.90;;;;;;4971558;28;86133;-89
2023/06/18 06:21:03;;;;;;;8.95;4.93;;;20.60;60.00;;;;;;4972132;28;86197;-89
2023/06/18 06:23:30;;;;;;;9.38;5.25;;;20.70;59.50;;;;;;4972441;28;89446;-89
2023/06/18 06:25:56;;;;;;;6.22;5.15;;;20.80;58.80;;;;;;4972580;28;88471;-92
2023/06/18 06:28:22;;;;;;;6.32;4.55;;;20.90;59.20;;;;;;4978882;28;86057;-92
2023/06/18 06:30:48;;;;;;;7.65;5.45;;;21.10;58.90;;;;;;4964707;28;88665;-92
2023/06/18 06:33:13;;;;;;;8.23;4.90;;;21.20;60.20;;;;;;4922702;28;89058;-86
2023/06/18 06:35:39;;;;;;;7.00;4.93;;;21.30;59.50;;;;;;4971254;28;89433;-86
2023/06/18 06:38:05;;;;;;;10.13;5.07;;;21.40;60.60;;;;;;4970957;28;86710;-86
2023/06/18 06:40:31;;;;;;;6.43;4.80;;;21.50;59.10;;;;;;4970373;28;86232;-86
2023/06/18 06:42:56;;;;;;;6.47;4.70;;;21.80;58.80;;;;;;4928758;28;88802;-85
2023/06/18 06:45:22;;;;;;;7.90;4.97;;;21.80;58.00;;;;;;4969640;28;89925;-93
2023/06/18 06:47:49;;;;;;;6.55;4.88;;;22.00;58.50;;;;;;4978412;28;85562;-91
2023/06/18 06:50:15;;;;;;;7.93;5.32;;;22.10;58.60;;;;;;4973762;28;85963;-94
2023/06/18 06:52:41;;;;;;;8.38;5.20;;;22.20;58.50;;;;;;4962926;28;88175;-93
2023/06/18 06:55:07;;;;;;;6.13;5.00;;;22.40;57.50;;;;;;4932720;28;87377;-94
2023/06/18 06:57:33;;;;;;;9.00;5.10;;;22.50;57.40;;;;;;4971193;28;86074;-87
2023/06/18 06:59:59;;;;;;;7.80;5.03;;;22.60;57.60;;;;;;4970968;28;86156;-86
2023/06/18 07:02:25;;;;;;;7.07;5.53;;;22.60;57.20;;;;;;4970712;28;90544;-83
2023/06/18 07:04:50;;;;;;;6.85;5.40;;;22.70;57.30;;;;;;4969944;28;88221;-84
2023/06/18 07:07:16;;;;;;;8.95;5.30;;;22.80;57.40;;;;;;4972971;28;86509;-84
2023/06/18 07:09:41;;;;;;;6.47;5.40;;;22.90;57.40;;;;;;4973479;28;86890;-83
2023/06/18 07:12:08;;;;;;;7.07;5.25;;;23.00;57.30;;;;;;4973605;28;90552;-84
2023/06/18 07:14:34;;;;;;;7.07;5.25;;;23.10;58.70;;;;;;4933519;28;90233;-85
2023/06/18 07:17:00;;;;;;;9.73;5.13;;;23.30;56.80;;;;;;4974491;28;86741;-84
2023/06/18 07:19:25;;;;;;;8.63;5.60;;;23.40;57.00;;;;;;4974670;28;86578;-82
2023/06/18 07:21:51;;;;;;;5.60;4.75;;;23.60;57.40;;;;;;4973634;28;88863;-83
2023/06/18 07:24:17;;;;;;;6.25;4.40;;;23.70;57.70;;;;;;4972954;28;90014;-85
2023/06/18 07:26:43;;;;;;;7.75;4.75;;;23.80;58.30;;;;;;4941436;28;86932;-83
2023/06/18 07:29:09;;;;;;;7.70;4.88;;;23.90;57.20;;;;;;4974342;28;87182;-83
2023/06/18 07:31:35;;;;;;;12.20;5.07;;;24.10;56.80;;;;;;4940444;28;89072;-83
2023/06/18 07:34:00;;;;;;;8.10;5.15;;;24.20;56.30;;;;;;4973388;28;88346;-83
2023/06/18 07:36:26;;;;;;;10.45;5.45;;;24.30;56.10;;;;;;4972950;28;86652;-84
2023/06/18 07:38:52;;;;;;;5.60;5.05;;;24.50;56.60;;;;;;4973144;28;86377;-84
2023/06/18 07:41:17;;;;;;;8.70;4.75;;;24.60;55.50;;;;;;4974348;28;90746;-84
2023/06/18 07:43:43;;;;;;;7.28;4.35;;;24.70;54.90;;;;;;4972612;28;89648;-82
2023/06/18 07:46:09;;;;;;;6.82;4.43;;;24.80;55.30;;;;;;4940890;28;86959;-82
2023/06/18 07:48:35;;;;;;;7.85;4.70;;;24.90;56.20;;;;;;4940120;28;86245;-84
2023/06/18 07:51:00;;;;;;;6.38;4.30;;;25.10;55.00;;;;;;4942903;28;87441;-85
2023/06/18 07:53:26;;;;;;;5.88;4.57;;;25.20;55.30;;;;;;4974587;28;88524;-90
2023/06/18 07:55:52;;;;;;;7.75;4.65;;;25.30;54.30;;;;;;4974131;28;86019;-92
2023/06/18 07:58:17;;;;;;;7.38;3.97;;;25.40;55.40;;;;;;4974018;28;87455;-92
2023/06/18 08:00:43;;;;;;;19.23;5.25;;;25.50;55.50;;;;;;4973639;28;89398;-93
2023/06/18 08:03:09;;;;;;;8.70;4.53;;;25.60;55.80;;;;;;4971289;28;89588;-90
2023/06/18 08:05:34;;;;;;;12.77;4.10;;;25.70;55.90;;;;;;4972413;28;86562;-91
2023/06/18 08:08:00;;;;;;;11.93;4.40;;;25.90;55.70;;;;;;4972669;28;86254;-89
2023/06/18 08:10:26;;;;;;;7.95;4.63;;;25.90;55.60;;;;;;4971587;28;90625;-89
2023/06/18 08:12:51;;;;;;;9.05;4.60;;;26.00;55.40;;;;;;4971778;28;89903;-87
2023/06/18 08:15:17;;;;;;;5.32;4.28;;;26.00;55.40;;;;;;4972686;28;87313;-92
2023/06/18 08:17:42;;;;;;;6.85;4.20;;;26.10;55.90;;;;;;4973022;28;86514;-88
2023/06/18 08:20:08;;;;;;;5.80;4.63;;;26.10;55.10;;;;;;4941004;28;93503;-92
2023/06/18 08:22:34;;;;;;;5.72;4.30;;;26.10;55.30;;;;;;4958224;28;89303;-91
2023/06/18 08:25:00;;;;;;;6.15;4.88;;;26.10;55.60;;;;;;4973431;28;86315;-91
2023/06/18 08:27:25;;;;;;;7.43;4.28;;;26.10;55.70;;;;;;4972298;28;87271;-88
2023/06/18 08:29:51;;;;;;;6.15;4.90;;;26.20;56.00;;;;;;4972885;28;89860;-91
2023/06/18 08:32:17;;;;;;;8.00;4.95;;;26.20;56.10;;;;;;4973285;28;89965;-89
2023/06/18 08:34:42;;;;;;;9.50;4.55;;;26.20;55.00;;;;;;4972313;28;86955;-87
2023/06/18 08:37:12;;;;;;;5.55;4.40;;;26.10;54.90;;;;;;4972673;28;86010;-88
2023/06/18 08:39:40;;;;;;;7.43;4.55;;;25.90;55.90;;;;;;4970107;28;90366;-91
2023/06/18 08:42:06;;;;;;;7.32;4.68;;;25.70;56.90;;;;;;4939068;28;90114;-91
2023/06/18 08:44:34;;;;;;;5.65;4.57;;;25.70;58.00;;;;;;4973237;28;87112;-86
2023/06/18 08:47:03;;;;;;;5.40;4.00;;;25.70;57.50;;;;;;4971275;28;87466;-89
2023/06/18 08:49:33;;;;;;;7.32;4.45;;;25.80;58.20;;;;;;4938047;28;89388;-91
2023/06/18 08:52:02;;;;;;;5.13;4.63;;;25.80;58.50;;;;;;4939922;28;89664;-91
2023/06/18 08:54:32;;;;;;;5.88;4.63;;;25.90;59.30;;;;;;4939256;28;86414;-91
2023/06/18 08:57:13;;;;;;;7.38;4.53;;;25.90;59.60;;;;;;4932764;28;85870;-89
2023/06/18 08:59:42;;;;;;;5.32;4.68;;;25.90;60.50;;;;;;4957959;28;90565;-87
2023/06/18 09:02:10;;;;;;;5.93;4.40;;;25.90;60.70;;;;;;4931480;28;88847;-90
2023/06/18 09:04:37;;;;;;;5.88;4.75;;;25.80;60.90;;;;;;4930288;28;86509;-89
2023/06/18 09:07:03;;;;;;;4.80;4.13;;;25.70;60.80;;;;;;4972224;28;86676;-90
2023/06/18 09:09:29;;;;;;;5.45;4.95;;;25.70;60.20;;;;;;4971821;28;90137;-90
2023/06/18 09:11:56;;;;;;;7.13;5.13;;;25.70;59.20;;;;;;4938689;28;89346;-89
2023/06/18 09:14:23;;;;;;;6.15;4.97;;;25.70;60.20;;;;;;4973607;28;86653;-89
2023/06/18 09:16:48;;;;;;;9.30;5.35;;;25.60;59.70;;;;;;4972865;28;86590;-88
2023/06/18 09:19:16;;;;;;;9.05;5.00;;;25.60;60.40;;;;;;4940470;28;88998;-90
2023/06/18 09:21:43;;;;;;;8.43;4.75;;;25.60;60.40;;;;;;4938169;28;90040;-86
2023/06/18 09:24:25;;;;;;;5.03;4.53;;;25.60;60.70;;;;;;4971639;28;86244;-88
2023/06/18 09:27:05;;;;;;;5.80;4.65;;;25.60;60.10;;;;;;4955052;28;86499;-85
2023/06/18 09:29:40;;;;;;;4.93;4.38;;;25.50;60.20;;;;;;4971286;28;89089;-88
2023/06/18 09:32:10;;;;;;;6.13;4.82;;;25.50;60.40;;;;;;4969219;28;89404;-87
2023/06/18 09:34:37;;;;;;;7.78;4.88;;;25.50;60.60;;;;;;4954337;28;86653;-89
2023/06/18 09:37:05;;;;;;;5.70;4.68;;;25.40;61.00;;;;;;4929667;28;86627;-88
2023/06/18 09:39:34;;;;;;;5.13;4.60;;;25.40;61.20;;;;;;4970668;28;89415;-88
2023/06/18 09:42:07;;;;;;;7.40;4.80;;;25.30;61.50;;;;;;4971122;28;90182;-89
2023/06/18 09:44:34;;;;;;;7.57;5.07;;;25.30;61.50;;;;;;4971569;28;86299;-89
2023/06/18 09:47:00;;;;;;;6.97;5.03;;;25.20;61.90;;;;;;4971546;28;86680;-89
2023/06/18 09:49:27;;;;;;;5.72;4.80;;;25.20;62.20;;;;;;4936836;28;89316;-87
2023/06/18 09:51:53;;;;;;;8.05;4.72;;;25.10;61.50;;;;;;4970073;28;88898;-88
2023/06/18 09:54:20;;;;;;;6.47;4.90;;;25.00;60.70;;;;;;4971182;28;86001;-85
2023/06/18 09:57:03;;;;;;;5.30;4.72;;;25.00;61.90;;;;;;4938670;28;86467;-87
2023/06/18 09:59:29;;;;;;;7.05;5.05;;;25.00;62.80;;;;;;4940288;28;90113;-88
2023/06/18 10:01:55;;;;;;;6.43;4.80;;;24.90;62.70;;;;;;4937720;28;89352;-87
2023/06/18 10:04:22;;;;;;;5.65;4.45;;;25.00;62.80;;;;;;4937401;28;87282;-86
2023/06/18 10:06:59;;;;;;;7.60;5.30;;;25.00;62.60;;;;;;4962133;28;87199;-85
2023/06/18 10:09:40;;;;;;;7.07;5.28;;;25.10;62.60;;;;;;4925551;28;90461;-84
2023/06/18 10:12:06;;;;;;;6.07;5.05;;;25.30;62.60;;;;;;4938539;28;88379;-87
2023/06/18 10:14:33;;;;;;;7.53;5.28;;;25.30;62.30;;;;;;4972129;28;85967;-86
2023/06/18 10:17:07;;;;;;;6.55;5.25;;;25.40;61.20;;;;;;4937788;28;86640;-88
2023/06/18 10:19:51;;;;;;;5.80;4.95;;;25.40;60.70;;;;;;4929995;28;88632;-86
2023/06/18 10:22:18;;;;;;;16.70;5.32;;;25.50;60.90;;;;;;4971112;28;90038;-89
2023/06/18 10:24:53;;;;;;;7.53;4.82;;;25.60;60.50;;;;;;4971808;28;86420;-92
2023/06/18 10:27:19;;;;;;;7.95;5.10;;;25.70;60.50;;;;;;4938852;28;86273;-92
2023/06/18 10:29:45;;;;;;;5.80;4.80;;;25.70;60.50;;;;;;4939272;28;90519;-85
2023/06/18 10:32:12;;;;;;;5.18;4.65;;;25.70;60.30;;;;;;4938648;28;89392;-87
2023/06/18 10:34:39;;;;;;;5.68;4.47;;;25.70;60.60;;;;;;4921640;28;86270;-86
2023/06/18 10:37:06;;;;;;;9.65;5.40;;;25.80;61.10;;;;;;4930454;28;87044;-87
2023/06/18 10:39:33;;;;;;;6.47;5.20;;;25.70;61.30;;;;;;4939441;28;89962;-88
2023/06/18 10:42:11;;;;;;;10.30;5.20;;;25.70;61.40;;;;;;4968557;28;88681;-88
2023/06/18 10:45:01;;;;;;;10.73;5.20;;;25.80;61.10;;;;;;4953756;28;86561;-87
2023/06/18 10:47:29;;;;;;;9.15;5.32;;;25.80;61.40;;;;;;4915995;28;87216;-86
2023/06/18 10:50:07;;;;;;;8.63;5.22;;;25.80;61.90;;;;;;4916561;28;88920;-86
2023/06/18 10:52:36;;;;;;;9.05;5.00;;;25.90;61.50;;;;;;4909052;28;85922;-86
2023/06/18 10:55:20;;;;;;;6.72;4.30;;;26.00;60.40;;;;;;4911014;28;86192;-87
2023/06/18 10:57:55;;;;;;;7.60;4.13;;;26.10;61.00;;;;;;4919115;28;86982;-86
2023/06/18 11:00:29;;;;;;;6.07;4.75;;;26.30;60.40;;;;;;4918751;28;89182;-85
2023/06/18 11:03:00;;;;;;;9.30;4.82;;;26.40;59.80;;;;;;4918060;28;88653;-90
2023/06/18 11:05:32;;;;;;;8.77;5.32;;;26.60;59.90;;;;;;4908352;28;86124;-90
2023/06/18 11:08:10;;;;;;;8.98;4.85;;;26.70;57.40;;;;;;4915628;28;87742;-89
2023/06/18 11:11:05;;;;;;;9.40;5.28;;;26.80;56.50;;;;;;4931733;28;89867;-84
2023/06/18 11:13:36;;;;;;;5.88;5.05;;;26.90;56.70;;;;;;4915174;28;86900;-84
2023/06/18 11:16:13;;;;;;;8.00;5.18;;;27.10;54.10;;;;;;4915975;28;87060;-85
2023/06/18 11:18:43;;;;;;;7.88;5.85;;;27.30;58.20;;;;;;4933002;28;86295;-85
2023/06/18 11:21:15;;;;;;;5.72;4.72;;;27.60;55.20;;;;;;4917832;28;88323;-85
2023/06/18 11:23:41;;;;;;;7.40;4.73;;;27.70;57.90;;;;;;4919070;28;89670;-85
2023/06/18 11:26:12;;;;;;;6.05;4.90;;;28.00;57.30;;;;;;4917295;28;86501;-85
2023/06/18 11:28:38;;;;;;;8.05;4.95;;;28.40;57.80;;;;;;4949190;28;86117;-84
2023/06/18 11:31:04;;;;;;;10.07;5.05;;;28.70;56.60;;;;;;4917627;28;90444;-85
2023/06/18 11:33:30;;;;;;;4.85;4.03;;;28.90;54.90;;;;;;4916199;28;88823;-85
2023/06/18 11:36:17;;;;;;;5.47;4.40;;;29.20;56.10;;;;;;4915878;28;86513;-85
2023/06/18 11:38:43;;;;;;;9.63;4.70;;;29.50;54.40;;;;;;4932084;28;85890;-85
2023/06/18 11:41:09;;;;;;;5.40;4.82;;;29.70;54.30;;;;;;4945009;28;92977;-85
2023/06/18 11:43:46;;;;;;;8.30;4.60;;;29.90;54.40;;;;;;4915329;28;90191;-86
2023/06/18 11:46:29;;;;;;;7.32;4.40;;;30.10;52.40;;;;;;4916384;28;86378;-86
2023/06/18 11:48:55;;;;;;;4.95;4.25;;;30.30;53.30;;;;;;4932481;28;86633;-86
2023/06/18 11:51:24;;;;;;;5.40;4.55;;;30.40;51.20;;;;;;4918220;28;89151;-86
2023/06/18 11:53:51;;;;;;;5.35;4.18;;;30.60;51.00;;;;;;4919702;28;88846;-86
2023/06/18 11:56:17;;;;;;;7.53;4.22;;;30.70;51.50;;;;;;4922565;28;86302;-86
2023/06/18 11:58:42;;;;;;;6.38;4.30;;;30.90;50.80;;;;;;4921705;28;86327;-86
2023/06/18 12:01:08;;;;;;;4.68;4.25;;;31.00;51.10;;;;;;4921861;28;90385;-87
2023/06/18 12:03:36;;;;;;;6.18;4.78;;;31.10;51.60;;;;;;4922635;28;88669;-86
2023/06/18 12:06:12;;;;;;;6.75;4.13;;;31.30;51.60;;;;;;4921665;28;86470;-87
2023/06/18 12:08:44;;;;;;;7.47;4.25;;;31.50;51.70;;;;;;4916025;28;86687;-87
2023/06/18 12:11:23;;;;;;;6.50;4.75;;;31.80;50.40;;;;;;4922046;28;94369;-89
2023/06/18 12:13:51;;;;;;;7.47;4.07;;;31.90;47.90;;;;;;4934931;28;88827;-87
2023/06/18 12:16:25;;;;;;;5.55;4.30;;;32.00;47.30;;;;;;4925712;28;86373;-85
2023/06/18 12:18:58;;;;;;;7.95;4.18;;;32.10;48.50;;;;;;4922857;28;86698;-82
2023/06/18 12:21:24;;;;;;;6.47;4.30;;;32.30;48.50;;;;;;4972841;28;89045;-85
2023/06/18 12:23:51;;;;;;;4.85;4.03;;;32.50;46.50;;;;;;4973282;28;89469;-84
2023/06/18 12:26:17;;;;;;;5.82;3.83;;;32.60;47.80;;;;;;4974430;28;87534;-86
2023/06/18 12:28:44;;;;;;;5.63;3.95;;;32.70;47.10;;;;;;4940971;28;86522;-86
2023/06/18 12:31:10;;;;;;;5.32;4.63;;;32.90;46.90;;;;;;4967561;28;90318;-86
2023/06/18 12:33:43;;;;;;;4.50;3.47;;;33.20;45.30;;;;;;4927649;28;89975;-87
2023/06/18 12:36:09;;;;;;;8.10;3.75;;;33.30;44.60;;;;;;4916395;28;86373;-85
2023/06/18 12:38:45;;;;;;;7.63;3.80;;;33.30;44.80;;;;;;4942072;28;86098;-87
2023/06/18 12:41:22;;;;;;;5.15;4.32;;;33.40;44.80;;;;;;4956113;28;94642;-85
2023/06/18 12:43:48;;;;;;;5.13;3.42;;;33.50;43.90;;;;;;4940018;28;88610;-85
2023/06/18 12:46:24;;;;;;;6.15;3.90;;;33.60;44.90;;;;;;4973684;28;86310;-86